createdAt,value
2018-06-11T00:00:30.105Z,0.00
2018-06-11T00:01:30.261Z,0.00
2018-06-11T00:02:30.417Z,0.00
2018-06-11T00:03:30.575Z,0.00
2018-06-11T00:04:30.737Z,0.00
2018-06-11T00:05:30.888Z,0.00
2018-06-11T00:06:31.046Z,0.00
2018-06-11T00:07:31.204Z,0.00
2018-06-11T00:08:31.359Z,0.00
2018-06-11T00:09:31.516Z,0.00
2018-06-11T00:10:31.672Z,0.00
2018-06-11T00:11:31.830Z,0.00
2018-06-11T00:12:31.986Z,0.00
2018-06-11T00:13:32.143Z,0.00
2018-06-11T00:14:32.304Z,0.00
2018-06-11T00:15:32.460Z,0.00
2018-06-11T00:16:32.618Z,0.00
2018-06-11T00:17:32.773Z,0.00
2018-06-11T00:18:32.928Z,0.00
2018-06-11T00:19:33.085Z,0.00
2018-06-11T00:20:33.242Z,0.00
2018-06-11T00:21:33.399Z,0.00
2018-06-11T00:22:33.556Z,0.00
2018-06-11T00:23:33.714Z,0.00
2018-06-11T00:24:33.867Z,0.00
2018-06-11T00:25:34.025Z,0.00
2018-06-11T00:26:34.181Z,0.00
2018-06-11T00:27:34.335Z,0.00
2018-06-11T00:28:34.495Z,0.00
2018-06-11T00:29:34.650Z,0.00
2018-06-11T00:30:34.806Z,0.00
2018-06-11T00:31:34.961Z,0.00
2018-06-11T00:32:35.117Z,0.00
2018-06-11T00:33:35.272Z,0.00
2018-06-11T00:34:35.431Z,0.00
2018-06-11T00:35:35.585Z,0.00
2018-06-11T00:36:35.745Z,0.00
2018-06-11T00:37:35.902Z,0.00
2018-06-11T00:38:36.057Z,0.00
2018-06-11T00:39:36.212Z,0.00
2018-06-11T00:40:36.368Z,0.00
2018-06-11T00:41:36.526Z,0.00
2018-06-11T00:42:36.681Z,0.00
2018-06-11T00:43:36.837Z,0.00
2018-06-11T00:44:36.985Z,0.00
2018-06-11T00:45:37.141Z,0.00
2018-06-11T00:46:37.297Z,0.00
2018-06-11T00:47:37.452Z,0.00
2018-06-11T00:48:37.608Z,0.00
2018-06-11T00:49:37.763Z,0.00
2018-06-11T00:50:37.919Z,0.00
2018-06-11T00:51:38.080Z,0.00
2018-06-11T00:52:38.233Z,0.00
2018-06-11T00:53:38.387Z,0.00
2018-06-11T00:54:38.542Z,0.00
2018-06-11T00:55:38.698Z,0.00
2018-06-11T00:56:38.868Z,0.00
2018-06-11T00:57:39.028Z,0.00
2018-06-11T00:58:39.193Z,0.00
2018-06-11T00:59:39.348Z,0.00
2018-06-11T01:00:39.506Z,0.00
2018-06-11T01:01:39.665Z,0.00
2018-06-11T01:02:39.821Z,0.00
2018-06-11T01:03:39.978Z,0.00
2018-06-11T01:04:40.137Z,0.00
2018-06-11T01:05:40.293Z,0.00
2018-06-11T01:06:40.448Z,0.00
2018-06-11T01:07:40.603Z,0.00
2018-06-11T01:08:40.765Z,0.00
2018-06-11T01:09:40.919Z,0.00
2018-06-11T01:10:41.074Z,0.00
2018-06-11T01:11:41.232Z,0.00
2018-06-11T01:12:41.386Z,0.00
2018-06-11T01:13:41.542Z,0.00
2018-06-11T01:14:41.698Z,0.00
2018-06-11T01:15:41.857Z,0.00
2018-06-11T01:16:42.010Z,0.00
2018-06-11T01:17:42.168Z,0.00
2018-06-11T01:18:42.322Z,0.00
2018-06-11T01:19:42.479Z,0.00
2018-06-11T01:20:42.637Z,0.00
2018-06-11T01:21:42.792Z,0.00
2018-06-11T01:22:42.947Z,0.00
2018-06-11T01:23:43.104Z,0.00
2018-06-11T01:24:43.262Z,0.00
2018-06-11T01:25:43.418Z,0.00
2018-06-11T01:26:43.574Z,0.00
2018-06-11T01:27:43.733Z,0.00
2018-06-11T01:28:43.894Z,0.00
2018-06-11T01:29:44.045Z,0.00
2018-06-11T01:30:44.201Z,0.00
2018-06-11T01:31:44.357Z,0.00
2018-06-11T01:32:44.513Z,0.00
2018-06-11T01:33:44.669Z,0.00
2018-06-11T01:34:44.827Z,0.00
2018-06-11T01:35:44.980Z,0.00
2018-06-11T01:36:45.142Z,0.00
2018-06-11T01:37:45.294Z,0.00
2018-06-11T01:38:45.449Z,0.00
2018-06-11T01:39:45.606Z,0.00
2018-06-11T01:40:45.764Z,0.00
2018-06-11T01:41:45.923Z,0.00
2018-06-11T01:42:46.082Z,0.00
2018-06-11T01:43:46.237Z,0.00
2018-06-11T01:44:46.397Z,0.00
2018-06-11T01:45:46.553Z,0.00
2018-06-11T01:46:46.710Z,0.00
2018-06-11T01:47:46.865Z,0.00
2018-06-11T01:48:47.023Z,0.00
2018-06-11T01:49:47.180Z,0.00
2018-06-11T01:50:47.336Z,0.00
2018-06-11T01:51:47.492Z,0.00
2018-06-11T01:52:47.650Z,0.00
2018-06-11T01:53:47.807Z,0.00
2018-06-11T01:54:47.962Z,0.00
2018-06-11T01:55:48.120Z,0.00
2018-06-11T01:56:48.276Z,0.00
2018-06-11T01:57:48.432Z,0.00
2018-06-11T01:58:48.603Z,0.00
2018-06-11T01:59:48.743Z,0.00
2018-06-11T02:00:48.901Z,0.00
2018-06-11T02:01:49.054Z,0.00
2018-06-11T02:02:49.209Z,0.00
2018-06-11T02:03:49.366Z,0.00
2018-06-11T02:04:49.526Z,0.00
2018-06-11T02:05:49.680Z,0.00
2018-06-11T02:06:49.837Z,0.00
2018-06-11T02:07:49.993Z,0.00
2018-06-11T02:08:50.147Z,0.00
2018-06-11T02:09:50.307Z,0.00
2018-06-11T02:10:50.462Z,0.00
2018-06-11T02:11:50.617Z,0.00
2018-06-11T02:12:50.775Z,0.00
2018-06-11T02:13:50.932Z,0.00
2018-06-11T02:14:51.086Z,0.00
2018-06-11T02:15:51.243Z,0.00
2018-06-11T02:16:51.399Z,0.00
2018-06-11T02:17:51.554Z,0.00
2018-06-11T02:18:51.709Z,0.00
2018-06-11T02:19:51.869Z,0.00
2018-06-11T02:20:52.023Z,0.00
2018-06-11T02:21:52.224Z,0.00
2018-06-11T02:22:52.340Z,0.00
2018-06-11T02:23:52.496Z,0.00
2018-06-11T02:24:52.648Z,0.00
2018-06-11T02:25:52.807Z,0.00
2018-06-11T02:26:52.967Z,0.00
2018-06-11T02:27:53.119Z,0.00
2018-06-11T02:28:53.275Z,0.00
2018-06-11T02:29:53.432Z,0.00
2018-06-11T02:30:53.590Z,0.00
2018-06-11T02:31:53.746Z,0.00
2018-06-11T02:32:53.899Z,0.00
2018-06-11T02:33:54.055Z,0.00
2018-06-11T02:34:54.210Z,4.00
2018-06-11T02:35:54.369Z,0.00
2018-06-11T02:36:54.524Z,0.00
2018-06-11T02:37:54.687Z,4.00
2018-06-11T02:38:54.840Z,0.00
2018-06-11T02:39:54.998Z,4.00
2018-06-11T02:40:55.160Z,4.00
2018-06-11T02:41:55.312Z,4.00
2018-06-11T02:42:55.469Z,4.00
2018-06-11T02:43:55.627Z,4.00
2018-06-11T02:44:55.780Z,8.00
2018-06-11T02:45:55.985Z,8.00
2018-06-11T02:46:56.093Z,8.00
2018-06-11T02:47:56.249Z,12.00
2018-06-11T02:48:56.406Z,12.00
2018-06-11T02:49:56.565Z,12.00
2018-06-11T02:50:56.721Z,16.00
2018-06-11T02:51:56.878Z,20.00
2018-06-11T02:52:57.042Z,24.00
2018-06-11T02:53:57.203Z,24.00
2018-06-11T02:54:57.361Z,28.00
2018-06-11T02:55:57.517Z,32.00
2018-06-11T02:56:57.674Z,32.00
2018-06-11T02:57:57.831Z,32.00
2018-06-11T02:58:57.988Z,32.00
2018-06-11T02:59:58.142Z,36.00
2018-06-11T03:00:58.295Z,40.00
2018-06-11T03:01:58.454Z,40.00
2018-06-11T03:02:58.608Z,44.00
2018-06-11T03:03:58.765Z,48.00
2018-06-11T03:04:58.921Z,48.00
2018-06-11T03:05:59.075Z,52.00
2018-06-11T03:06:59.234Z,56.00
2018-06-11T03:07:59.387Z,64.00
2018-06-11T03:08:59.542Z,72.00
2018-06-11T03:09:59.700Z,76.00
2018-06-11T03:10:59.859Z,84.00
2018-06-11T03:12:00.014Z,92.00
2018-06-11T03:13:00.165Z,100.00
2018-06-11T03:14:00.321Z,108.00
2018-06-11T03:15:00.476Z,116.00
2018-06-11T03:16:00.639Z,124.00
2018-06-11T03:17:00.792Z,132.00
2018-06-11T03:18:00.946Z,144.00
2018-06-11T03:19:01.100Z,152.00
2018-06-11T03:20:01.257Z,160.00
2018-06-11T03:21:01.412Z,172.00
2018-06-11T03:22:01.568Z,180.00
2018-06-11T03:23:01.725Z,196.00
2018-06-11T03:24:01.882Z,204.00
2018-06-11T03:25:02.038Z,220.00
2018-06-11T03:26:02.194Z,232.00
2018-06-11T03:27:02.349Z,248.00
2018-06-11T03:28:02.509Z,264.00
2018-06-11T03:29:02.663Z,284.00
2018-06-11T03:30:02.818Z,300.00
2018-06-11T03:31:02.975Z,308.00
2018-06-11T03:32:03.130Z,312.00
2018-06-11T03:33:03.286Z,324.00
2018-06-11T03:34:03.442Z,344.00
2018-06-11T03:35:03.597Z,368.00
2018-06-11T03:36:03.754Z,404.00
2018-06-11T03:37:03.909Z,440.00
2018-06-11T03:38:04.064Z,480.00
2018-06-11T03:39:04.220Z,520.00
2018-06-11T03:40:04.372Z,536.00
2018-06-11T03:41:04.530Z,536.00
2018-06-11T03:42:04.686Z,540.00
2018-06-11T03:43:04.881Z,544.00
2018-06-11T03:44:04.996Z,556.00
2018-06-11T03:45:05.150Z,584.00
2018-06-11T03:46:05.307Z,620.00
2018-06-11T03:47:05.461Z,652.00
2018-06-11T03:48:05.617Z,680.00
2018-06-11T03:49:05.775Z,708.00
2018-06-11T03:50:05.928Z,736.00
2018-06-11T03:51:06.087Z,784.00
2018-06-11T03:52:06.243Z,832.00
2018-06-11T03:53:06.398Z,888.00
2018-06-11T03:54:06.553Z,944.00
2018-06-11T03:55:06.707Z,1000.00
2018-06-11T03:56:06.865Z,1052.00
2018-06-11T03:57:07.018Z,1092.00
2018-06-11T03:58:07.175Z,1124.00
2018-06-11T03:59:07.330Z,1132.00
2018-06-11T04:00:07.487Z,1132.00
2018-06-11T04:01:07.643Z,1112.00
2018-06-11T04:02:07.796Z,1072.00
2018-06-11T04:03:07.953Z,1004.00
2018-06-11T04:04:08.109Z,904.00
2018-06-11T04:05:08.263Z,832.00
2018-06-11T04:06:08.419Z,788.00
2018-06-11T04:07:08.576Z,752.00
2018-06-11T04:08:08.730Z,736.00
2018-06-11T04:09:08.886Z,724.00
2018-06-11T04:10:09.043Z,724.00
2018-06-11T04:11:09.320Z,724.00
2018-06-11T04:12:09.377Z,740.00
2018-06-11T04:13:09.532Z,748.00
2018-06-11T04:14:09.687Z,748.00
2018-06-11T04:15:09.843Z,756.00
2018-06-11T04:16:10.001Z,780.00
2018-06-11T04:17:10.157Z,816.00
2018-06-11T04:18:10.314Z,872.00
2018-06-11T04:19:10.469Z,948.00
2018-06-11T04:20:10.624Z,1044.00
2018-06-11T04:21:10.781Z,1140.00
2018-06-11T04:22:10.936Z,1224.00
2018-06-11T04:23:11.094Z,1276.00
2018-06-11T04:24:11.252Z,1304.00
2018-06-11T04:25:11.404Z,1316.00
2018-06-11T04:26:11.563Z,1312.00
2018-06-11T04:27:11.718Z,1308.00
2018-06-11T04:28:11.869Z,1332.00
2018-06-11T04:29:12.026Z,1368.00
2018-06-11T04:30:12.186Z,1412.00
2018-06-11T04:31:12.343Z,1460.00
2018-06-11T04:32:12.501Z,1504.00
2018-06-11T04:33:12.659Z,1548.00
2018-06-11T04:34:12.812Z,1600.00
2018-06-11T04:35:12.969Z,1648.00
2018-06-11T04:36:13.124Z,1696.00
2018-06-11T04:37:13.280Z,1744.00
2018-06-11T04:38:13.435Z,1800.00
2018-06-11T04:39:13.590Z,1856.00
2018-06-11T04:40:13.746Z,1928.00
2018-06-11T04:41:13.902Z,2004.00
2018-06-11T04:42:14.058Z,2084.00
2018-06-11T04:43:14.213Z,2172.00
2018-06-11T04:44:14.372Z,2268.00
2018-06-11T04:45:14.530Z,2352.00
2018-06-11T04:46:14.687Z,2420.00
2018-06-11T04:47:14.840Z,2484.00
2018-06-11T04:48:14.994Z,2548.00
2018-06-11T04:49:15.149Z,2616.00
2018-06-11T04:50:15.306Z,2704.00
2018-06-11T04:51:15.469Z,2792.00
2018-06-11T04:52:15.621Z,2888.00
2018-06-11T04:53:15.779Z,2972.00
2018-06-11T04:54:15.931Z,3052.00
2018-06-11T04:55:16.091Z,3128.00
2018-06-11T04:56:16.244Z,3192.00
2018-06-11T04:57:16.399Z,3244.00
2018-06-11T04:58:16.556Z,3284.00
2018-06-11T04:59:16.711Z,3324.00
2018-06-11T05:00:16.865Z,3360.00
2018-06-11T05:01:17.024Z,3404.00
2018-06-11T05:02:17.180Z,3460.00
2018-06-11T05:03:17.337Z,3520.00
2018-06-11T05:04:17.493Z,3584.00
2018-06-11T05:05:17.648Z,3580.00
2018-06-11T05:06:17.804Z,3520.00
2018-06-11T05:07:17.961Z,3484.00
2018-06-11T05:08:18.117Z,3464.00
2018-06-11T05:09:18.274Z,3436.00
2018-06-11T05:10:18.431Z,3420.00
2018-06-11T05:11:18.586Z,3428.00
2018-06-11T05:12:18.741Z,3488.00
2018-06-11T05:13:18.897Z,3596.00
2018-06-11T05:14:19.055Z,3756.00
2018-06-11T05:15:19.212Z,3956.00
2018-06-11T05:16:19.368Z,4200.00
2018-06-11T05:17:19.522Z,4508.00
2018-06-11T05:18:19.682Z,4756.00
2018-06-11T05:19:19.837Z,4796.00
2018-06-11T05:20:19.994Z,4620.00
2018-06-11T05:21:20.150Z,4344.00
2018-06-11T05:22:20.306Z,4076.00
2018-06-11T05:23:20.481Z,3936.00
2018-06-11T05:24:20.622Z,4004.00
2018-06-11T05:25:20.779Z,4220.00
2018-06-11T05:26:20.934Z,4456.00
2018-06-11T05:27:21.093Z,4624.00
2018-06-11T05:28:21.248Z,4624.00
2018-06-11T05:29:21.402Z,4584.00
2018-06-11T05:30:21.561Z,4440.00
2018-06-11T05:31:21.714Z,4332.00
2018-06-11T05:32:21.874Z,4220.00
2018-06-11T05:33:22.026Z,4180.00
2018-06-11T05:34:22.191Z,4136.00
2018-06-11T05:35:22.343Z,4148.00
2018-06-11T05:36:22.498Z,4208.00
2018-06-11T05:37:22.656Z,4324.00
2018-06-11T05:38:22.809Z,4444.00
2018-06-11T05:39:22.965Z,4548.00
2018-06-11T05:40:23.134Z,4576.00
2018-06-11T05:41:23.278Z,4484.00
2018-06-11T05:42:23.437Z,4356.00
2018-06-11T05:43:23.598Z,4320.00
2018-06-11T05:44:23.755Z,4332.00
2018-06-11T05:45:23.909Z,4408.00
2018-06-11T05:46:24.063Z,4408.00
2018-06-11T05:47:24.223Z,4456.00
2018-06-11T05:48:24.375Z,4532.00
2018-06-11T05:49:24.532Z,4560.00
2018-06-11T05:50:24.689Z,4572.00
2018-06-11T05:51:24.844Z,4640.00
2018-06-11T05:52:25.001Z,4852.00
2018-06-11T05:53:25.207Z,5128.00
2018-06-11T05:54:25.311Z,5276.00
2018-06-11T05:55:25.467Z,5004.00
2018-06-11T05:56:25.628Z,4548.00
2018-06-11T05:57:25.781Z,4224.00
2018-06-11T05:58:25.941Z,4000.00
2018-06-11T05:59:26.094Z,3800.00
2018-06-11T06:00:26.251Z,3712.00
2018-06-11T06:01:26.408Z,3688.00
2018-06-11T06:02:26.564Z,3704.00
2018-06-11T06:03:26.720Z,3740.00
2018-06-11T06:04:26.881Z,3768.00
2018-06-11T06:05:27.032Z,3776.00
2018-06-11T06:06:27.191Z,3684.00
2018-06-11T06:07:27.345Z,3516.00
2018-06-11T06:08:27.501Z,3408.00
2018-06-11T06:09:27.659Z,3344.00
2018-06-11T06:10:27.820Z,3580.00
2018-06-11T06:11:27.975Z,3892.00
2018-06-11T06:12:28.133Z,4092.00
2018-06-11T06:13:28.289Z,4212.00
2018-06-11T06:14:28.443Z,4480.00
2018-06-11T06:15:28.603Z,4888.00
2018-06-11T06:16:28.755Z,5188.00
2018-06-11T06:17:28.913Z,5448.00
2018-06-11T06:18:29.068Z,5784.00
2018-06-11T06:19:29.224Z,5976.00
2018-06-11T06:20:29.382Z,6060.00
2018-06-11T06:21:29.540Z,6024.00
2018-06-11T06:22:29.694Z,5880.00
2018-06-11T06:23:29.849Z,5808.00
2018-06-11T06:24:30.007Z,5620.00
2018-06-11T06:25:30.162Z,5296.00
2018-06-11T06:26:30.320Z,4932.00
2018-06-11T06:27:30.475Z,4524.00
2018-06-11T06:28:30.633Z,4204.00
2018-06-11T06:29:30.790Z,4140.00
2018-06-11T06:30:30.947Z,4208.00
2018-06-11T06:31:31.101Z,4416.00
2018-06-11T06:32:31.261Z,4712.00
2018-06-11T06:33:31.414Z,5152.00
2018-06-11T06:34:31.650Z,5584.00
2018-06-11T06:35:31.727Z,5984.00
2018-06-11T06:36:31.884Z,6152.00
2018-06-11T06:37:32.040Z,5876.00
2018-06-11T06:38:32.195Z,5344.00
2018-06-11T06:39:32.352Z,4908.00
2018-06-11T06:40:32.525Z,4712.00
2018-06-11T06:41:32.665Z,4728.00
2018-06-11T06:42:32.821Z,4716.00
2018-06-11T06:43:32.977Z,4660.00
2018-06-11T06:44:33.131Z,4564.00
2018-06-11T06:45:33.288Z,4412.00
2018-06-11T06:46:33.445Z,4368.00
2018-06-11T06:47:33.602Z,4420.00
2018-06-11T06:48:33.760Z,4632.00
2018-06-11T06:49:33.916Z,5084.00
2018-06-11T06:50:34.078Z,5448.00
2018-06-11T06:51:34.231Z,5780.00
2018-06-11T06:52:34.387Z,6120.00
2018-06-11T06:53:34.580Z,6320.00
2018-06-11T06:54:34.700Z,6420.00
2018-06-11T06:55:34.862Z,6412.00
2018-06-11T06:56:35.017Z,6464.00
2018-06-11T06:57:35.172Z,6444.00
2018-06-11T06:58:35.332Z,6544.00
2018-06-11T06:59:35.489Z,6832.00
2018-06-11T07:00:35.647Z,7092.00
2018-06-11T07:01:35.801Z,7220.00
2018-06-11T07:02:35.957Z,7140.00
2018-06-11T07:03:36.115Z,6904.00
2018-06-11T07:04:36.272Z,6744.00
2018-06-11T07:05:36.430Z,6736.00
2018-06-11T07:06:36.585Z,6804.00
2018-06-11T07:07:36.742Z,6880.00
2018-06-11T07:08:36.903Z,6976.00
2018-06-11T07:09:37.091Z,7056.00
2018-06-11T07:10:37.215Z,7304.00
2018-06-11T07:11:37.371Z,7576.00
2018-06-11T07:12:37.530Z,7948.00
2018-06-11T07:13:37.692Z,8196.00
2018-06-11T07:14:37.842Z,8408.00
2018-06-11T07:15:38.002Z,8576.00
2018-06-11T07:16:38.158Z,8840.00
2018-06-11T07:17:38.328Z,9156.00
2018-06-11T07:18:38.477Z,9540.00
2018-06-11T07:19:38.636Z,9940.00
2018-06-11T07:20:38.790Z,10076.00
2018-06-11T07:21:38.949Z,10152.00
2018-06-11T07:22:39.106Z,10312.00
2018-06-11T07:23:39.263Z,10408.00
2018-06-11T07:24:39.421Z,10332.00
2018-06-11T07:25:39.580Z,10184.00
2018-06-11T07:26:39.740Z,9928.00
2018-06-11T07:27:39.898Z,9732.00
2018-06-11T07:28:40.054Z,9708.00
2018-06-11T07:29:40.212Z,9956.00
2018-06-11T07:30:40.368Z,10004.00
2018-06-11T07:31:40.530Z,9916.00
2018-06-11T07:32:40.686Z,9796.00
2018-06-11T07:33:40.843Z,9624.00
2018-06-11T07:34:41.000Z,9448.00
2018-06-11T07:35:41.160Z,9328.00
2018-06-11T07:36:41.319Z,9276.00
2018-06-11T07:37:41.478Z,9260.00
2018-06-11T07:38:41.633Z,9256.00
2018-06-11T07:39:41.792Z,9064.00
2018-06-11T07:40:41.950Z,8860.00
2018-06-11T07:41:42.109Z,8764.00
2018-06-11T07:42:42.268Z,8768.00
2018-06-11T07:43:42.431Z,8628.00
2018-06-11T07:44:42.585Z,8752.00
2018-06-11T07:45:42.744Z,9156.00
2018-06-11T07:46:42.904Z,9212.00
2018-06-11T07:47:43.061Z,9332.00
2018-06-11T07:48:43.218Z,9524.00
2018-06-11T07:49:43.376Z,9600.00
2018-06-11T07:50:43.537Z,9684.00
2018-06-11T07:51:43.700Z,9488.00
2018-06-11T07:52:43.852Z,9236.00
2018-06-11T07:53:44.013Z,9120.00
2018-06-11T07:54:44.171Z,9032.00
2018-06-11T07:55:44.329Z,8972.00
2018-06-11T07:56:44.487Z,8968.00
2018-06-11T07:57:44.646Z,9016.00
2018-06-11T07:58:44.805Z,9248.00
2018-06-11T07:59:44.963Z,9620.00
2018-06-11T08:00:45.122Z,9884.00
2018-06-11T08:01:45.281Z,10172.00
2018-06-11T08:02:45.438Z,9820.00
2018-06-11T08:03:45.597Z,9684.00
2018-06-11T08:04:45.757Z,9728.00
2018-06-11T08:05:45.914Z,9740.00
2018-06-11T08:06:46.072Z,9684.00
2018-06-11T08:07:46.230Z,9592.00
2018-06-11T08:08:46.391Z,9364.00
2018-06-11T08:09:46.550Z,9024.00
2018-06-11T08:10:46.707Z,8716.00
2018-06-11T08:11:46.868Z,8644.00
2018-06-11T08:12:47.026Z,8728.00
2018-06-11T08:13:47.186Z,8432.00
2018-06-11T08:14:47.344Z,8292.00
2018-06-11T08:15:47.504Z,8304.00
2018-06-11T08:16:47.662Z,8320.00
2018-06-11T08:17:47.821Z,8396.00
2018-06-11T08:18:47.981Z,8644.00
2018-06-11T08:19:48.139Z,8484.00
2018-06-11T08:20:48.319Z,8868.00
2018-06-11T08:21:48.455Z,8532.00
2018-06-11T08:22:48.614Z,8576.00
2018-06-11T08:23:48.772Z,8428.00
2018-06-11T08:24:48.952Z,8460.00
2018-06-11T08:25:49.090Z,8896.00
2018-06-11T08:26:49.248Z,9240.00
2018-06-11T08:27:49.408Z,8916.00
2018-06-11T08:28:49.571Z,9044.00
2018-06-11T08:29:49.724Z,8764.00
2018-06-11T08:30:49.883Z,8496.00
2018-06-11T08:31:50.042Z,8488.00
2018-06-11T08:32:50.202Z,8484.00
2018-06-11T08:33:50.418Z,8856.00
2018-06-11T08:34:50.524Z,9164.00
2018-06-11T08:35:50.678Z,9256.00
2018-06-11T08:36:50.835Z,9064.00
2018-06-11T08:37:50.994Z,9304.00
2018-06-11T08:38:51.154Z,9980.00
2018-06-11T08:39:51.311Z,10604.00
2018-06-11T08:40:51.472Z,10604.00
2018-06-11T08:41:51.633Z,10556.00
2018-06-11T08:42:51.790Z,10588.00
2018-06-11T08:43:51.947Z,10568.00
2018-06-11T08:44:52.111Z,10692.00
2018-06-11T08:45:52.271Z,11188.00
2018-06-11T08:46:52.429Z,10920.00
2018-06-11T08:47:52.587Z,10600.00
2018-06-11T08:48:52.755Z,10104.00
2018-06-11T08:49:52.903Z,9984.00
2018-06-11T08:50:53.065Z,10172.00
2018-06-11T08:51:53.228Z,10240.00
2018-06-11T08:52:53.381Z,9920.00
2018-06-11T08:53:53.539Z,9832.00
2018-06-11T08:54:53.696Z,9648.00
2018-06-11T08:55:53.856Z,9656.00
2018-06-11T08:56:54.014Z,9896.00
2018-06-11T08:57:54.171Z,9624.00
2018-06-11T08:58:54.329Z,9788.00
2018-06-11T08:59:54.531Z,10108.00
2018-06-11T09:00:54.647Z,9892.00
2018-06-11T09:01:54.806Z,9832.00
2018-06-11T09:02:54.963Z,10124.00
2018-06-11T09:03:55.121Z,10828.00
2018-06-11T09:04:55.279Z,11324.00
2018-06-11T09:05:55.435Z,11776.00
2018-06-11T09:06:55.596Z,11784.00
2018-06-11T09:07:55.756Z,12348.00
2018-06-11T09:08:55.914Z,11928.00
2018-06-11T09:09:56.070Z,12468.00
2018-06-11T09:10:56.229Z,12576.00
2018-06-11T09:11:56.388Z,12396.00
2018-06-11T09:12:56.547Z,12340.00
2018-06-11T09:13:56.706Z,12392.00
2018-06-11T09:14:56.864Z,12732.00
2018-06-11T09:15:57.021Z,12900.00
2018-06-11T09:16:57.180Z,12660.00
2018-06-11T09:17:57.369Z,12776.00
2018-06-11T09:18:57.498Z,13256.00
2018-06-11T09:19:57.655Z,13292.00
2018-06-11T09:20:57.814Z,13192.00
2018-06-11T09:21:57.973Z,13072.00
2018-06-11T09:22:58.134Z,13096.00
2018-06-11T09:23:58.292Z,14048.00
2018-06-11T09:24:58.452Z,13728.00
2018-06-11T09:25:58.609Z,12848.00
2018-06-11T09:26:58.768Z,12872.00
2018-06-11T09:27:58.927Z,13252.00
2018-06-11T09:28:59.087Z,13088.00
2018-06-11T09:29:59.245Z,12916.00
2018-06-11T09:30:59.424Z,13624.00
2018-06-11T09:31:59.561Z,13068.00
2018-06-11T09:32:59.722Z,13148.00
2018-06-11T09:33:59.880Z,13256.00
2018-06-11T09:35:00.048Z,12688.00
2018-06-11T09:36:00.198Z,12468.00
2018-06-11T09:37:00.361Z,12476.00
2018-06-11T09:38:00.519Z,12328.00
2018-06-11T09:39:00.676Z,12268.00
2018-06-11T09:40:00.849Z,11852.00
2018-06-11T09:41:01.011Z,11676.00
2018-06-11T09:42:01.170Z,11536.00
2018-06-11T09:43:01.330Z,11444.00
2018-06-11T09:44:01.534Z,11332.00
2018-06-11T09:45:01.649Z,11688.00
2018-06-11T09:46:01.811Z,11108.00
2018-06-11T09:47:01.969Z,11108.00
2018-06-11T09:48:02.132Z,11180.00
2018-06-11T09:49:02.293Z,11332.00
2018-06-11T09:50:02.451Z,12068.00
2018-06-11T09:51:02.610Z,12552.00
2018-06-11T09:52:02.770Z,13184.00
2018-06-11T09:53:02.932Z,12968.00
2018-06-11T09:54:03.090Z,12708.00
2018-06-11T09:55:03.250Z,12660.00
2018-06-11T09:56:03.409Z,12484.00
2018-06-11T09:57:03.583Z,12052.00
2018-06-11T09:58:03.742Z,11584.00
2018-06-11T09:59:03.903Z,11212.00
2018-06-11T10:00:04.061Z,10744.00
2018-06-11T10:01:04.222Z,10628.00
2018-06-11T10:02:04.383Z,10812.00
2018-06-11T10:03:04.542Z,11208.00
2018-06-11T10:04:04.704Z,11688.00
2018-06-11T10:05:04.865Z,11772.00
2018-06-11T10:06:05.024Z,11720.00
2018-06-11T10:07:05.186Z,11640.00
2018-06-11T10:08:05.342Z,11580.00
2018-06-11T10:09:05.557Z,11608.00
2018-06-11T10:10:05.662Z,11712.00
2018-06-11T10:11:05.823Z,11852.00
2018-06-11T10:12:05.984Z,11976.00
2018-06-11T10:13:06.141Z,12040.00
2018-06-11T10:14:06.301Z,12032.00
2018-06-11T10:15:06.461Z,12160.00
2018-06-11T10:16:06.619Z,12272.00
2018-06-11T10:17:06.779Z,12284.00
2018-06-11T10:18:06.941Z,12260.00
2018-06-11T10:19:07.119Z,12192.00
2018-06-11T10:20:07.261Z,12072.00
2018-06-11T10:21:07.419Z,11964.00
2018-06-11T10:22:07.579Z,11924.00
2018-06-11T10:23:07.743Z,12000.00
2018-06-11T10:24:07.905Z,12136.00
2018-06-11T10:25:08.069Z,12300.00
2018-06-11T10:26:08.225Z,12468.00
2018-06-11T10:27:08.384Z,12564.00
2018-06-11T10:28:08.546Z,12692.00
2018-06-11T10:29:08.731Z,12776.00
2018-06-11T10:30:08.891Z,12852.00
2018-06-11T10:31:09.050Z,13108.00
2018-06-11T10:32:09.207Z,13504.00
2018-06-11T10:33:09.369Z,13140.00
2018-06-11T10:34:09.530Z,13156.00
2018-06-11T10:35:09.688Z,13664.00
2018-06-11T10:36:09.851Z,12892.00
2018-06-11T10:37:10.015Z,12760.00
2018-06-11T10:38:10.170Z,12592.00
2018-06-11T10:39:10.365Z,12808.00
2018-06-11T10:40:10.491Z,12328.00
2018-06-11T10:41:10.652Z,11984.00
2018-06-11T10:42:10.816Z,12160.00
2018-06-11T10:43:10.969Z,12252.00
2018-06-11T10:44:11.133Z,12836.00
2018-06-11T10:45:11.291Z,12920.00
2018-06-11T10:46:11.450Z,13344.00
2018-06-11T10:47:11.613Z,13072.00
2018-06-11T10:48:11.772Z,12640.00
2018-06-11T10:49:11.934Z,12284.00
2018-06-11T10:50:12.093Z,12260.00
2018-06-11T10:51:12.254Z,12000.00
2018-06-11T10:52:12.415Z,11464.00
2018-06-11T10:53:12.575Z,10880.00
2018-06-11T10:54:12.737Z,10288.00
2018-06-11T10:55:12.896Z,9740.00
2018-06-11T10:56:13.059Z,9336.00
2018-06-11T10:57:13.220Z,9080.00
2018-06-11T10:58:13.386Z,8976.00
2018-06-11T10:59:13.541Z,8892.00
2018-06-11T11:00:13.701Z,9088.00
2018-06-11T11:01:13.861Z,9112.00
2018-06-11T11:02:14.023Z,9164.00
2018-06-11T11:03:14.182Z,9180.00
2018-06-11T11:04:14.343Z,9296.00
2018-06-11T11:05:14.505Z,9376.00
2018-06-11T11:06:14.664Z,9432.00
2018-06-11T11:07:14.826Z,9668.00
2018-06-11T11:08:14.984Z,9628.00
2018-06-11T11:09:15.147Z,9516.00
2018-06-11T11:10:15.310Z,9536.00
2018-06-11T11:11:15.472Z,8664.00
2018-06-11T11:12:15.631Z,9560.00
2018-06-11T11:13:15.793Z,9432.00
2018-06-11T11:14:15.962Z,9796.00
2018-06-11T11:15:16.113Z,8660.00
2018-06-11T11:16:16.276Z,9720.00
2018-06-11T11:17:16.437Z,9860.00
2018-06-11T11:18:16.600Z,9344.00
2018-06-11T11:19:16.763Z,9756.00
2018-06-11T11:20:16.924Z,8940.00
2018-06-11T11:21:17.084Z,9572.00
2018-06-11T11:22:17.248Z,9856.00
2018-06-11T11:23:17.414Z,9864.00
2018-06-11T11:24:17.571Z,10172.00
2018-06-11T11:25:17.731Z,10512.00
2018-06-11T11:26:17.894Z,10860.00
2018-06-11T11:27:18.053Z,11324.00
2018-06-11T11:28:18.215Z,11844.00
2018-06-11T11:29:18.413Z,11732.00
2018-06-11T11:30:18.536Z,11652.00
2018-06-11T11:31:18.694Z,11520.00
2018-06-11T11:32:18.857Z,11676.00
2018-06-11T11:33:19.018Z,11244.00
2018-06-11T11:34:19.180Z,10816.00
2018-06-11T11:35:19.340Z,10508.00
2018-06-11T11:36:19.500Z,10444.00
2018-06-11T11:37:19.663Z,10164.00
2018-06-11T11:38:19.827Z,9864.00
2018-06-11T11:39:19.987Z,9660.00
2018-06-11T11:40:20.148Z,9260.00
2018-06-11T11:41:20.312Z,9712.00
2018-06-11T11:42:20.473Z,9644.00
2018-06-11T11:43:20.632Z,9676.00
2018-06-11T11:44:20.792Z,9732.00
2018-06-11T11:45:20.956Z,9828.00
2018-06-11T11:46:21.119Z,9900.00
2018-06-11T11:47:21.279Z,10036.00
2018-06-11T11:48:21.442Z,9324.00
2018-06-11T11:49:21.604Z,8996.00
2018-06-11T11:50:21.764Z,10400.00
2018-06-11T11:51:21.929Z,10476.00
2018-06-11T11:52:22.093Z,9924.00
2018-06-11T11:53:22.254Z,10604.00
2018-06-11T11:54:22.414Z,10204.00
2018-06-11T11:55:22.574Z,10736.00
2018-06-11T11:56:22.736Z,10960.00
2018-06-11T11:57:22.896Z,11012.00
2018-06-11T11:58:23.058Z,10976.00
2018-06-11T11:59:23.216Z,10180.00
2018-06-11T12:00:23.377Z,9776.00
2018-06-11T12:01:23.539Z,9940.00
2018-06-11T12:02:23.700Z,10384.00
2018-06-11T12:03:23.862Z,10952.00
2018-06-11T12:04:24.026Z,10232.00
2018-06-11T12:05:24.190Z,10536.00
2018-06-11T12:06:24.356Z,10652.00
2018-06-11T12:07:24.515Z,10676.00
2018-06-11T12:08:24.678Z,10972.00
2018-06-11T12:09:24.838Z,11188.00
2018-06-11T12:10:25.000Z,11288.00
2018-06-11T12:11:25.160Z,11404.00
2018-06-11T12:12:25.328Z,11340.00
2018-06-11T12:13:25.489Z,11472.00
2018-06-11T12:14:25.646Z,11460.00
2018-06-11T12:15:25.812Z,11348.00
2018-06-11T12:16:25.983Z,11444.00
2018-06-11T12:17:26.149Z,11556.00
2018-06-11T12:18:26.314Z,11580.00
2018-06-11T12:19:26.483Z,11312.00
2018-06-11T12:20:26.645Z,10088.00